sensor_id;sensor_type;location;lat;lon;timestamp;temperature;humidity
45693;DHT22;31402;44.752;-0.374;2022-10-18T00:01:14;21.80;99.90
45693;DHT22;31402;44.752;-0.374;2022-10-18T00:03:40;21.80;99.90
45693;DHT22;31402;44.752;-0.374;2022-10-18T00:06:06;21.70;99.90
45693;DHT22;31402;44.752;-0.374;2022-10-18T00:08:35;21.70;99.90
45693;DHT22;31402;44.752;-0.374;2022-10-18T00:11:01;21.70;99.90
45693;DHT22;31402;44.752;-0.374;2022-10-18T00:13:27;21.70;99.90
45693;DHT22;31402;44.752;-0.374;2022-10-18T00:15:56;21.80;99.90
45693;DHT22;31402;44.752;-0.374;2022-10-18T00:18:22;21.80;99.90
45693;DHT22;31402;44.752;-0.374;2022-10-18T00:21:09;21.90;99.90
45693;DHT22;31402;44.752;-0.374;2022-10-18T00:23:35;21.80;99.90
45693;DHT22;31402;44.752;-0.374;2022-10-18T00:26:10;21.80;99.90
45693;DHT22;31402;44.752;-0.374;2022-10-18T00:28:36;21.90;99.90
45693;DHT22;31402;44.752;-0.374;2022-10-18T00:31:18;22.00;99.90
45693;DHT22;31402;44.752;-0.374;2022-10-18T00:33:48;22.00;99.90
45693;DHT22;31402;44.752;-0.374;2022-10-18T00:36:14;22.00;99.90
45693;DHT22;31402;44.752;-0.374;2022-10-18T00:38:40;22.00;99.90
45693;DHT22;31402;44.752;-0.374;2022-10-18T00:41:08;22.10;99.90
45693;DHT22;31402;44.752;-0.374;2022-10-18T00:46:33;22.00;99.90
45693;DHT22;31402;44.752;-0.374;2022-10-18T00:49:01;22.10;99.90
45693;DHT22;31402;44.752;-0.374;2022-10-18T00:51:31;22.10;99.90
45693;DHT22;31402;44.752;-0.374;2022-10-18T00:53:58;22.10;99.90
45693;DHT22;31402;44.752;-0.374;2022-10-18T00:56:24;22.10;99.90
45693;DHT22;31402;44.752;-0.374;2022-10-18T00:58:50;22.00;99.90
45693;DHT22;31402;44.752;-0.374;2022-10-18T01:01:16;22.10;99.90
45693;DHT22;31402;44.752;-0.374;2022-10-18T01:03:42;22.10;99.90
45693;DHT22;31402;44.752;-0.374;2022-10-18T01:06:08;22.10;99.90
45693;DHT22;31402;44.752;-0.374;2022-10-18T01:08:49;22.00;99.90
45693;DHT22;31402;44.752;-0.374;2022-10-18T01:22:35;21.70;99.90
45693;DHT22;31402;44.752;-0.374;2022-10-18T01:28:50;21.50;99.90
45693;DHT22;31402;44.752;-0.374;2022-10-18T01:31:09;21.60;99.90
45693;DHT22;31402;44.752;-0.374;2022-10-18T01:36:59;21.60;99.90
45693;DHT22;31402;44.752;-0.374;2022-10-18T01:39:11;21.70;99.90
45693;DHT22;31402;44.752;-0.374;2022-10-18T01:41:40;21.80;99.90
45693;DHT22;31402;44.752;-0.374;2022-10-18T01:44:10;21.80;99.90
45693;DHT22;31402;44.752;-0.374;2022-10-18T01:46:38;21.70;99.90
45693;DHT22;31402;44.752;-0.374;2022-10-18T01:49:06;21.70;99.90
45693;DHT22;31402;44.752;-0.374;2022-10-18T01:51:32;21.70;99.90
45693;DHT22;31402;44.752;-0.374;2022-10-18T01:53:58;21.60;99.90
45693;DHT22;31402;44.752;-0.374;2022-10-18T02:04:44;21.50;99.90
45693;DHT22;31402;44.752;-0.374;2022-10-18T02:07:35;21.50;99.90
45693;DHT22;31402;44.752;-0.374;2022-10-18T02:10:06;21.50;99.90
45693;DHT22;31402;44.752;-0.374;2022-10-18T02:12:34;21.20;99.90
45693;DHT22;31402;44.752;-0.374;2022-10-18T02:15:02;21.20;99.90
45693;DHT22;31402;44.752;-0.374;2022-10-18T02:17:29;21.20;99.90
45693;DHT22;31402;44.752;-0.374;2022-10-18T02:19:59;21.20;99.90
45693;DHT22;31402;44.752;-0.374;2022-10-18T02:22:29;21.20;99.90
45693;DHT22;31402;44.752;-0.374;2022-10-18T02:24:58;21.20;99.90
45693;DHT22;31402;44.752;-0.374;2022-10-18T02:27:26;21.20;99.90
45693;DHT22;31402;44.752;-0.374;2022-10-18T02:29:53;21.30;99.90
45693;DHT22;31402;44.752;-0.374;2022-10-18T02:32:27;21.30;99.90
45693;DHT22;31402;44.752;-0.374;2022-10-18T02:37:29;21.10;99.90
45693;DHT22;31402;44.752;-0.374;2022-10-18T02:39:55;21.10;99.90
45693;DHT22;31402;44.752;-0.374;2022-10-18T02:42:21;21.10;99.90
45693;DHT22;31402;44.752;-0.374;2022-10-18T02:44:47;21.10;99.90
45693;DHT22;31402;44.752;-0.374;2022-10-18T02:47:13;21.10;99.90
45693;DHT22;31402;44.752;-0.374;2022-10-18T02:49:38;21.20;99.90
45693;DHT22;31402;44.752;-0.374;2022-10-18T02:52:04;21.20;99.90
45693;DHT22;31402;44.752;-0.374;2022-10-18T02:54:30;21.30;99.90
45693;DHT22;31402;44.752;-0.374;2022-10-18T02:56:56;21.30;99.90
45693;DHT22;31402;44.752;-0.374;2022-10-18T02:59:22;21.40;99.90
45693;DHT22;31402;44.752;-0.374;2022-10-18T03:01:48;21.30;99.90
45693;DHT22;31402;44.752;-0.374;2022-10-18T03:04:14;21.30;99.90
45693;DHT22;31402;44.752;-0.374;2022-10-18T03:06:40;21.10;99.90
45693;DHT22;31402;44.752;-0.374;2022-10-18T03:09:06;21.20;99.90
45693;DHT22;31402;44.752;-0.374;2022-10-18T03:11:31;21.00;99.90
45693;DHT22;31402;44.752;-0.374;2022-10-18T03:13:57;20.90;99.90
45693;DHT22;31402;44.752;-0.374;2022-10-18T03:16:23;20.80;99.90
45693;DHT22;31402;44.752;-0.374;2022-10-18T03:18:49;20.80;99.90
45693;DHT22;31402;44.752;-0.374;2022-10-18T03:21:15;20.90;99.90
45693;DHT22;31402;44.752;-0.374;2022-10-18T03:23:41;21.20;99.90
45693;DHT22;31402;44.752;-0.374;2022-10-18T03:26:07;21.10;99.90
45693;DHT22;31402;44.752;-0.374;2022-10-18T03:28:33;21.00;99.90
45693;DHT22;31402;44.752;-0.374;2022-10-18T03:31:03;20.90;99.90
45693;DHT22;31402;44.752;-0.374;2022-10-18T03:33:30;20.90;99.90
45693;DHT22;31402;44.752;-0.374;2022-10-18T03:35:56;20.90;99.90
45693;DHT22;31402;44.752;-0.374;2022-10-18T03:38:22;20.80;99.90
45693;DHT22;31402;44.752;-0.374;2022-10-18T03:40:48;20.60;99.90
45693;DHT22;31402;44.752;-0.374;2022-10-18T03:43:14;20.70;99.90
45693;DHT22;31402;44.752;-0.374;2022-10-18T03:45:39;20.70;99.90
45693;DHT22;31402;44.752;-0.374;2022-10-18T03:48:05;20.60;99.90
45693;DHT22;31402;44.752;-0.374;2022-10-18T03:50:31;20.50;99.90
45693;DHT22;31402;44.752;-0.374;2022-10-18T03:52:57;20.50;99.90
45693;DHT22;31402;44.752;-0.374;2022-10-18T03:55:22;20.50;99.90
45693;DHT22;31402;44.752;-0.374;2022-10-18T03:57:48;20.50;99.90
45693;DHT22;31402;44.752;-0.374;2022-10-18T04:00:14;20.60;99.90
45693;DHT22;31402;44.752;-0.374;2022-10-18T04:02:40;20.70;99.90
45693;DHT22;31402;44.752;-0.374;2022-10-18T04:05:06;20.70;99.90
45693;DHT22;31402;44.752;-0.374;2022-10-18T04:07:33;20.70;99.90
45693;DHT22;31402;44.752;-0.374;2022-10-18T04:09:59;20.70;99.90
45693;DHT22;31402;44.752;-0.374;2022-10-18T04:12:25;20.70;99.90
45693;DHT22;31402;44.752;-0.374;2022-10-18T04:14:51;20.70;99.90
45693;DHT22;31402;44.752;-0.374;2022-10-18T04:17:16;20.90;99.90
45693;DHT22;31402;44.752;-0.374;2022-10-18T04:19:42;20.90;99.90
45693;DHT22;31402;44.752;-0.374;2022-10-18T04:22:08;20.90;99.90
45693;DHT22;31402;44.752;-0.374;2022-10-18T04:24:36;20.90;99.90
45693;DHT22;31402;44.752;-0.374;2022-10-18T04:27:03;20.90;99.90
45693;DHT22;31402;44.752;-0.374;2022-10-18T04:29:29;20.70;99.90
45693;DHT22;31402;44.752;-0.374;2022-10-18T04:31:55;20.70;99.90
45693;DHT22;31402;44.752;-0.374;2022-10-18T04:34:21;20.70;99.90
45693;DHT22;31402;44.752;-0.374;2022-10-18T04:36:47;20.90;99.90
45693;DHT22;31402;44.752;-0.374;2022-10-18T04:39:12;21.00;99.90
45693;DHT22;31402;44.752;-0.374;2022-10-18T04:41:38;21.00;99.90
45693;DHT22;31402;44.752;-0.374;2022-10-18T04:44:04;21.00;99.90
45693;DHT22;31402;44.752;-0.374;2022-10-18T04:46:30;20.90;99.90
45693;DHT22;31402;44.752;-0.374;2022-10-18T04:48:55;20.90;99.90
45693;DHT22;31402;44.752;-0.374;2022-10-18T04:51:21;20.90;99.90
45693;DHT22;31402;44.752;-0.374;2022-10-18T04:53:47;20.90;99.90
45693;DHT22;31402;44.752;-0.374;2022-10-18T04:56:13;20.80;99.90
45693;DHT22;31402;44.752;-0.374;2022-10-18T04:58:39;20.70;99.90
45693;DHT22;31402;44.752;-0.374;2022-10-18T05:01:06;20.70;99.90
45693;DHT22;31402;44.752;-0.374;2022-10-18T05:03:32;20.80;99.90
45693;DHT22;31402;44.752;-0.374;2022-10-18T05:05:58;20.90;99.90
45693;DHT22;31402;44.752;-0.374;2022-10-18T05:08:24;20.90;99.90
45693;DHT22;31402;44.752;-0.374;2022-10-18T05:10:49;20.90;99.90
45693;DHT22;31402;44.752;-0.374;2022-10-18T05:13:15;20.80;99.90
45693;DHT22;31402;44.752;-0.374;2022-10-18T05:15:41;20.90;99.90
45693;DHT22;31402;44.752;-0.374;2022-10-18T05:18:07;20.80;99.90
45693;DHT22;31402;44.752;-0.374;2022-10-18T05:20:32;20.70;99.90
45693;DHT22;31402;44.752;-0.374;2022-10-18T05:22:58;20.70;99.90
45693;DHT22;31402;44.752;-0.374;2022-10-18T05:25:24;20.70;99.90
45693;DHT22;31402;44.752;-0.374;2022-10-18T05:27:50;20.60;99.90
45693;DHT22;31402;44.752;-0.374;2022-10-18T05:30:15;20.70;99.90
45693;DHT22;31402;44.752;-0.374;2022-10-18T05:32:41;20.60;99.90
45693;DHT22;31402;44.752;-0.374;2022-10-18T05:35:07;20.40;99.90
45693;DHT22;31402;44.752;-0.374;2022-10-18T05:37:33;20.20;99.90
45693;DHT22;31402;44.752;-0.374;2022-10-18T05:39:58;20.10;99.90
45693;DHT22;31402;44.752;-0.374;2022-10-18T05:42:24;20.10;99.90
45693;DHT22;31402;44.752;-0.374;2022-10-18T05:44:50;20.10;99.90
45693;DHT22;31402;44.752;-0.374;2022-10-18T05:47:16;20.20;99.90
45693;DHT22;31402;44.752;-0.374;2022-10-18T05:49:41;20.40;99.90
45693;DHT22;31402;44.752;-0.374;2022-10-18T05:52:07;20.40;99.90
45693;DHT22;31402;44.752;-0.374;2022-10-18T05:54:33;20.30;99.90
45693;DHT22;31402;44.752;-0.374;2022-10-18T05:56:59;20.20;99.90
45693;DHT22;31402;44.752;-0.374;2022-10-18T05:59:24;20.10;99.90
45693;DHT22;31402;44.752;-0.374;2022-10-18T06:01:50;20.20;99.90
45693;DHT22;31402;44.752;-0.374;2022-10-18T06:04:16;20.20;99.90
45693;DHT22;31402;44.752;-0.374;2022-10-18T06:06:42;20.30;99.90
45693;DHT22;31402;44.752;-0.374;2022-10-18T06:09:08;20.40;99.90
45693;DHT22;31402;44.752;-0.374;2022-10-18T06:11:34;20.50;99.90
45693;DHT22;31402;44.752;-0.374;2022-10-18T06:14:00;20.30;99.90
45693;DHT22;31402;44.752;-0.374;2022-10-18T06:16:26;20.40;99.90
45693;DHT22;31402;44.752;-0.374;2022-10-18T06:18:54;20.40;99.90
45693;DHT22;31402;44.752;-0.374;2022-10-18T06:21:21;20.40;99.90
45693;DHT22;31402;44.752;-0.374;2022-10-18T06:23:51;20.40;99.90
45693;DHT22;31402;44.752;-0.374;2022-10-18T06:26:18;20.50;99.90
45693;DHT22;31402;44.752;-0.374;2022-10-18T06:28:43;20.40;99.90
45693;DHT22;31402;44.752;-0.374;2022-10-18T06:31:10;20.40;99.90
45693;DHT22;31402;44.752;-0.374;2022-10-18T06:33:36;20.50;99.90
45693;DHT22;31402;44.752;-0.374;2022-10-18T06:36:05;20.50;99.90
45693;DHT22;31402;44.752;-0.374;2022-10-18T06:38:32;20.60;99.90
45693;DHT22;31402;44.752;-0.374;2022-10-18T06:40:59;20.60;99.90
45693;DHT22;31402;44.752;-0.374;2022-10-18T06:43:25;20.60;99.90
45693;DHT22;31402;44.752;-0.374;2022-10-18T06:45:52;20.90;99.90
45693;DHT22;31402;44.752;-0.374;2022-10-18T06:48:18;20.80;99.90
45693;DHT22;31402;44.752;-0.374;2022-10-18T06:53:17;21.10;99.90
45693;DHT22;31402;44.752;-0.374;2022-10-18T06:55:43;21.50;99.90
45693;DHT22;31402;44.752;-0.374;2022-10-18T06:58:08;21.60;99.90
45693;DHT22;31402;44.752;-0.374;2022-10-18T07:00:35;22.10;99.90
45693;DHT22;31402;44.752;-0.374;2022-10-18T07:03:00;22.30;99.90
45693;DHT22;31402;44.752;-0.374;2022-10-18T07:05:26;22.70;99.90
45693;DHT22;31402;44.752;-0.374;2022-10-18T07:07:52;23.10;99.90
45693;DHT22;31402;44.752;-0.374;2022-10-18T07:10:18;23.30;99.90
45693;DHT22;31402;44.752;-0.374;2022-10-18T07:12:43;23.40;99.90
45693;DHT22;31402;44.752;-0.374;2022-10-18T07:15:09;23.50;99.90
45693;DHT22;31402;44.752;-0.374;2022-10-18T07:17:35;23.70;99.90
45693;DHT22;31402;44.752;-0.374;2022-10-18T07:20:01;24.10;99.90
45693;DHT22;31402;44.752;-0.374;2022-10-18T07:22:29;24.40;99.90
45693;DHT22;31402;44.752;-0.374;2022-10-18T07:24:54;24.40;99.90
45693;DHT22;31402;44.752;-0.374;2022-10-18T07:27:20;24.40;99.90
45693;DHT22;31402;44.752;-0.374;2022-10-18T07:29:46;24.20;99.90
45693;DHT22;31402;44.752;-0.374;2022-10-18T07:32:13;24.10;99.90
45693;DHT22;31402;44.752;-0.374;2022-10-18T07:34:38;24.00;99.90
45693;DHT22;31402;44.752;-0.374;2022-10-18T07:37:05;23.90;99.90
45693;DHT22;31402;44.752;-0.374;2022-10-18T07:39:32;23.50;99.90
45693;DHT22;31402;44.752;-0.374;2022-10-18T07:41:57;23.30;99.90
45693;DHT22;31402;44.752;-0.374;2022-10-18T07:44:23;23.40;99.90
45693;DHT22;31402;44.752;-0.374;2022-10-18T07:46:49;22.90;99.90
45693;DHT22;31402;44.752;-0.374;2022-10-18T07:49:14;22.70;99.90
45693;DHT22;31402;44.752;-0.374;2022-10-18T07:51:41;22.60;99.90
45693;DHT22;31402;44.752;-0.374;2022-10-18T07:54:08;22.60;99.90
45693;DHT22;31402;44.752;-0.374;2022-10-18T07:56:34;22.60;99.90
45693;DHT22;31402;44.752;-0.374;2022-10-18T07:58:59;22.50;99.90
45693;DHT22;31402;44.752;-0.374;2022-10-18T08:01:25;22.60;99.90
45693;DHT22;31402;44.752;-0.374;2022-10-18T08:03:51;22.50;99.90
45693;DHT22;31402;44.752;-0.374;2022-10-18T08:06:19;22.80;99.90
45693;DHT22;31402;44.752;-0.374;2022-10-18T08:08:46;22.70;99.90
45693;DHT22;31402;44.752;-0.374;2022-10-18T08:11:18;22.70;99.90
45693;DHT22;31402;44.752;-0.374;2022-10-18T08:13:44;23.00;99.90
45693;DHT22;31402;44.752;-0.374;2022-10-18T08:16:22;23.10;99.90
45693;DHT22;31402;44.752;-0.374;2022-10-18T08:18:49;23.30;99.90
45693;DHT22;31402;44.752;-0.374;2022-10-18T08:21:15;23.30;99.90
45693;DHT22;31402;44.752;-0.374;2022-10-18T08:23:41;23.30;99.90
45693;DHT22;31402;44.752;-0.374;2022-10-18T08:26:10;23.00;99.90
45693;DHT22;31402;44.752;-0.374;2022-10-18T08:28:36;23.00;99.90
45693;DHT22;31402;44.752;-0.374;2022-10-18T08:31:09;23.00;99.90
45693;DHT22;31402;44.752;-0.374;2022-10-18T08:33:35;23.10;99.90
45693;DHT22;31402;44.752;-0.374;2022-10-18T08:36:04;23.30;99.90
45693;DHT22;31402;44.752;-0.374;2022-10-18T08:38:31;23.30;99.90
45693;DHT22;31402;44.752;-0.374;2022-10-18T08:46:32;23.40;99.90
45693;DHT22;31402;44.752;-0.374;2022-10-18T08:49:00;23.40;99.90
45693;DHT22;31402;44.752;-0.374;2022-10-18T08:51:31;23.40;99.90
45693;DHT22;31402;44.752;-0.374;2022-10-18T08:54:33;23.50;99.90
45693;DHT22;31402;44.752;-0.374;2022-10-18T08:57:00;23.80;99.90
45693;DHT22;31402;44.752;-0.374;2022-10-18T08:59:31;23.90;99.90
45693;DHT22;31402;44.752;-0.374;2022-10-18T09:04:57;23.90;99.90
45693;DHT22;31402;44.752;-0.374;2022-10-18T09:07:54;23.80;99.90
45693;DHT22;31402;44.752;-0.374;2022-10-18T09:15:56;23.90;99.90
45693;DHT22;31402;44.752;-0.374;2022-10-18T09:24:04;24.30;99.90
45693;DHT22;31402;44.752;-0.374;2022-10-18T09:26:45;24.60;99.90
45693;DHT22;31402;44.752;-0.374;2022-10-18T09:32:20;24.60;99.90
45693;DHT22;31402;44.752;-0.374;2022-10-18T09:34:56;24.60;99.90
45693;DHT22;31402;44.752;-0.374;2022-10-18T09:37:24;24.30;99.90
45693;DHT22;31402;44.752;-0.374;2022-10-18T09:39:59;24.20;99.90
45693;DHT22;31402;44.752;-0.374;2022-10-18T09:42:35;24.30;99.90
45693;DHT22;31402;44.752;-0.374;2022-10-18T09:45:12;24.40;99.90
45693;DHT22;31402;44.752;-0.374;2022-10-18T09:47:49;24.80;99.90
45693;DHT22;31402;44.752;-0.374;2022-10-18T09:50:24;25.00;99.90
45693;DHT22;31402;44.752;-0.374;2022-10-18T09:55:37;24.90;99.90
45693;DHT22;31402;44.752;-0.374;2022-10-18T09:58:06;24.70;99.90
45693;DHT22;31402;44.752;-0.374;2022-10-18T10:00:37;24.70;99.90
45693;DHT22;31402;44.752;-0.374;2022-10-18T10:03:11;24.70;99.90
45693;DHT22;31402;44.752;-0.374;2022-10-18T10:05:39;24.90;99.90
45693;DHT22;31402;44.752;-0.374;2022-10-18T10:08:05;25.20;99.90
45693;DHT22;31402;44.752;-0.374;2022-10-18T10:10:31;25.60;99.20
45693;DHT22;31402;44.752;-0.374;2022-10-18T10:13:18;25.60;99.30
45693;DHT22;31402;44.752;-0.374;2022-10-18T10:16:05;25.40;99.10
45693;DHT22;31402;44.752;-0.374;2022-10-18T10:18:35;25.50;99.40
45693;DHT22;31402;44.752;-0.374;2022-10-18T10:21:12;25.70;98.80
45693;DHT22;31402;44.752;-0.374;2022-10-18T10:23:45;25.70;98.60
45693;DHT22;31402;44.752;-0.374;2022-10-18T10:26:33;25.70;98.50
45693;DHT22;31402;44.752;-0.374;2022-10-18T10:28:59;25.80;98.90
45693;DHT22;31402;44.752;-0.374;2022-10-18T10:31:27;25.70;99.00
45693;DHT22;31402;44.752;-0.374;2022-10-18T10:34:01;25.60;99.10
45693;DHT22;31402;44.752;-0.374;2022-10-18T10:36:29;25.80;99.60
45693;DHT22;31402;44.752;-0.374;2022-10-18T10:39:11;26.00;98.30
45693;DHT22;31402;44.752;-0.374;2022-10-18T10:41:39;26.10;98.30
45693;DHT22;31402;44.752;-0.374;2022-10-18T10:44:15;26.30;97.90
45693;DHT22;31402;44.752;-0.374;2022-10-18T10:46:41;26.30;97.60
45693;DHT22;31402;44.752;-0.374;2022-10-18T10:49:45;26.30;97.30
45693;DHT22;31402;44.752;-0.374;2022-10-18T10:52:23;26.30;97.80
45693;DHT22;31402;44.752;-0.374;2022-10-18T10:54:52;26.40;97.50
45693;DHT22;31402;44.752;-0.374;2022-10-18T10:57:22;26.30;97.30
45693;DHT22;31402;44.752;-0.374;2022-10-18T10:59:51;26.10;97.80
45693;DHT22;31402;44.752;-0.374;2022-10-18T11:02:34;26.10;97.70
45693;DHT22;31402;44.752;-0.374;2022-10-18T11:05:22;26.20;97.60
45693;DHT22;31402;44.752;-0.374;2022-10-18T11:07:51;26.40;97.20
45693;DHT22;31402;44.752;-0.374;2022-10-18T11:10:22;26.50;97.30
45693;DHT22;31402;44.752;-0.374;2022-10-18T11:13:06;26.60;96.70
45693;DHT22;31402;44.752;-0.374;2022-10-18T11:15:52;26.70;96.60
45693;DHT22;31402;44.752;-0.374;2022-10-18T11:18:30;26.70;96.70
45693;DHT22;31402;44.752;-0.374;2022-10-18T11:23:33;26.50;96.70
45693;DHT22;31402;44.752;-0.374;2022-10-18T11:39:30;26.40;96.00
45693;DHT22;31402;44.752;-0.374;2022-10-18T11:42:23;26.50;95.80
45693;DHT22;31402;44.752;-0.374;2022-10-18T12:01:38;26.60;95.90
45693;DHT22;31402;44.752;-0.374;2022-10-18T12:04:17;26.90;95.70
45693;DHT22;31402;44.752;-0.374;2022-10-18T12:06:46;27.00;95.70
45693;DHT22;31402;44.752;-0.374;2022-10-18T12:09:24;27.30;94.70
45693;DHT22;31402;44.752;-0.374;2022-10-18T12:14:36;27.40;94.10
45693;DHT22;31402;44.752;-0.374;2022-10-18T12:17:37;27.50;94.30
45693;DHT22;31402;44.752;-0.374;2022-10-18T12:20:12;27.40;94.50
45693;DHT22;31402;44.752;-0.374;2022-10-18T12:25:38;27.30;94.60
45693;DHT22;31402;44.752;-0.374;2022-10-18T12:28:13;27.40;94.70
45693;DHT22;31402;44.752;-0.374;2022-10-18T12:30:49;27.50;94.30
45693;DHT22;31402;44.752;-0.374;2022-10-18T12:33:20;27.60;93.80
45693;DHT22;31402;44.752;-0.374;2022-10-18T12:38:55;27.60;93.90
45693;DHT22;31402;44.752;-0.374;2022-10-18T12:41:29;27.40;94.00
45693;DHT22;31402;44.752;-0.374;2022-10-18T12:44:06;27.40;94.40
45693;DHT22;31402;44.752;-0.374;2022-10-18T12:49:13;27.40;94.10
45693;DHT22;31402;44.752;-0.374;2022-10-18T12:51:56;27.50;94.00
45693;DHT22;31402;44.752;-0.374;2022-10-18T12:54:34;27.60;93.90
45693;DHT22;31402;44.752;-0.374;2022-10-18T12:57:02;27.40;94.00
45693;DHT22;31402;44.752;-0.374;2022-10-18T13:09:29;27.90;93.50
45693;DHT22;31402;44.752;-0.374;2022-10-18T13:33:54;28.10;92.60
45693;DHT22;31402;44.752;-0.374;2022-10-18T13:36:32;28.20;92.70
45693;DHT22;31402;44.752;-0.374;2022-10-18T13:39:03;28.20;92.70
45693;DHT22;31402;44.752;-0.374;2022-10-18T13:44:27;28.20;92.50
45693;DHT22;31402;44.752;-0.374;2022-10-18T13:57:44;28.30;92.30
45693;DHT22;31402;44.752;-0.374;2022-10-18T14:06:11;28.40;92.40
45693;DHT22;31402;44.752;-0.374;2022-10-18T14:13:55;28.30;92.10
45693;DHT22;31402;44.752;-0.374;2022-10-18T14:19:21;28.30;92.50
45693;DHT22;31402;44.752;-0.374;2022-10-18T14:22:02;28.40;92.00
45693;DHT22;31402;44.752;-0.374;2022-10-18T14:24:29;28.50;91.80
45693;DHT22;31402;44.752;-0.374;2022-10-18T14:27:18;28.60;91.90
45693;DHT22;31402;44.752;-0.374;2022-10-18T14:29:44;28.40;91.70
45693;DHT22;31402;44.752;-0.374;2022-10-18T14:34:49;28.40;92.30
45693;DHT22;31402;44.752;-0.374;2022-10-18T14:37:33;28.60;92.40
45693;DHT22;31402;44.752;-0.374;2022-10-18T14:40:00;28.70;91.90
45693;DHT22;31402;44.752;-0.374;2022-10-18T14:42:27;28.80;91.10
45693;DHT22;31402;44.752;-0.374;2022-10-18T14:44:53;28.80;90.80
45693;DHT22;31402;44.752;-0.374;2022-10-18T14:47:24;28.80;90.90
45693;DHT22;31402;44.752;-0.374;2022-10-18T14:49:51;28.70;90.80
45693;DHT22;31402;44.752;-0.374;2022-10-18T14:52:32;28.80;90.70
45693;DHT22;31402;44.752;-0.374;2022-10-18T14:54:58;28.80;90.60
45693;DHT22;31402;44.752;-0.374;2022-10-18T14:57:32;28.90;90.40
45693;DHT22;31402;44.752;-0.374;2022-10-18T15:00:01;28.80;90.50
45693;DHT22;31402;44.752;-0.374;2022-10-18T15:02:34;28.80;90.90
45693;DHT22;31402;44.752;-0.374;2022-10-18T15:05:21;28.60;91.00
45693;DHT22;31402;44.752;-0.374;2022-10-18T15:07:48;28.70;90.50
45693;DHT22;31402;44.752;-0.374;2022-10-18T15:10:22;28.60;90.90
45693;DHT22;31402;44.752;-0.374;2022-10-18T15:12:49;28.60;90.80
45693;DHT22;31402;44.752;-0.374;2022-10-18T15:15:25;28.60;90.70
45693;DHT22;31402;44.752;-0.374;2022-10-18T15:17:51;28.80;90.30
45693;DHT22;31402;44.752;-0.374;2022-10-18T15:22:50;28.60;90.40
45693;DHT22;31402;44.752;-0.374;2022-10-18T15:25:17;28.70;90.30
45693;DHT22;31402;44.752;-0.374;2022-10-18T15:27:57;28.60;90.50
45693;DHT22;31402;44.752;-0.374;2022-10-18T15:33:00;28.50;90.20
45693;DHT22;31402;44.752;-0.374;2022-10-18T15:37:55;28.30;90.50
45693;DHT22;31402;44.752;-0.374;2022-10-18T15:42:53;28.40;90.50
45693;DHT22;31402;44.752;-0.374;2022-10-18T15:50:41;28.40;90.40
45693;DHT22;31402;44.752;-0.374;2022-10-18T15:56:02;28.30;90.50
45693;DHT22;31402;44.752;-0.374;2022-10-18T15:58:44;28.30;90.50
45693;DHT22;31402;44.752;-0.374;2022-10-18T16:01:30;28.30;90.60
45693;DHT22;31402;44.752;-0.374;2022-10-18T16:03:59;28.40;90.50
45693;DHT22;31402;44.752;-0.374;2022-10-18T16:06:25;28.30;90.40
45693;DHT22;31402;44.752;-0.374;2022-10-18T16:08:52;28.40;90.50
45693;DHT22;31402;44.752;-0.374;2022-10-18T16:11:24;28.30;90.40
45693;DHT22;31402;44.752;-0.374;2022-10-18T16:13:51;28.30;90.50
45693;DHT22;31402;44.752;-0.374;2022-10-18T16:16:26;28.30;90.50
45693;DHT22;31402;44.752;-0.374;2022-10-18T16:18:52;28.20;90.80
45693;DHT22;31402;44.752;-0.374;2022-10-18T16:23:46;28.10;91.10
45693;DHT22;31402;44.752;-0.374;2022-10-18T16:26:12;28.10;90.90
45693;DHT22;31402;44.752;-0.374;2022-10-18T16:28:39;28.10;91.00
45693;DHT22;31402;44.752;-0.374;2022-10-18T16:31:05;28.10;91.10
45693;DHT22;31402;44.752;-0.374;2022-10-18T16:33:31;28.00;90.90
45693;DHT22;31402;44.752;-0.374;2022-10-18T16:35:57;28.00;90.90
45693;DHT22;31402;44.752;-0.374;2022-10-18T16:38:32;28.00;91.10
45693;DHT22;31402;44.752;-0.374;2022-10-18T16:40:58;28.00;91.10
45693;DHT22;31402;44.752;-0.374;2022-10-18T16:43:24;27.90;91.20
45693;DHT22;31402;44.752;-0.374;2022-10-18T16:45:51;27.90;91.10
45693;DHT22;31402;44.752;-0.374;2022-10-18T16:48:19;27.90;91.10
45693;DHT22;31402;44.752;-0.374;2022-10-18T16:50:47;27.90;91.00
45693;DHT22;31402;44.752;-0.374;2022-10-18T16:53:13;27.80;91.10
45693;DHT22;31402;44.752;-0.374;2022-10-18T16:55:40;27.80;91.00
45693;DHT22;31402;44.752;-0.374;2022-10-18T16:58:12;27.80;91.00
45693;DHT22;31402;44.752;-0.374;2022-10-18T17:00:38;27.70;91.20
45693;DHT22;31402;44.752;-0.374;2022-10-18T17:03:06;27.60;91.20
45693;DHT22;31402;44.752;-0.374;2022-10-18T17:05:31;27.50;91.40
45693;DHT22;31402;44.752;-0.374;2022-10-18T17:07:57;27.40;91.50
45693;DHT22;31402;44.752;-0.374;2022-10-18T17:10:23;27.40;91.50
45693;DHT22;31402;44.752;-0.374;2022-10-18T17:12:50;27.40;91.40
45693;DHT22;31402;44.752;-0.374;2022-10-18T17:15:16;27.40;91.30
45693;DHT22;31402;44.752;-0.374;2022-10-18T17:17:42;27.40;91.00
45693;DHT22;31402;44.752;-0.374;2022-10-18T17:20:15;27.40;91.10
45693;DHT22;31402;44.752;-0.374;2022-10-18T17:22:42;27.40;91.00
45693;DHT22;31402;44.752;-0.374;2022-10-18T17:25:08;27.30;91.10
45693;DHT22;31402;44.752;-0.374;2022-10-18T17:27:34;27.30;91.10
45693;DHT22;31402;44.752;-0.374;2022-10-18T17:30:00;27.20;91.20
45693;DHT22;31402;44.752;-0.374;2022-10-18T17:32:26;27.20;91.20
45693;DHT22;31402;44.752;-0.374;2022-10-18T17:34:51;27.20;91.00
45693;DHT22;31402;44.752;-0.374;2022-10-18T17:37:17;27.20;90.90
45693;DHT22;31402;44.752;-0.374;2022-10-18T17:39:43;27.10;91.00
45693;DHT22;31402;44.752;-0.374;2022-10-18T17:42:08;27.10;91.10
45693;DHT22;31402;44.752;-0.374;2022-10-18T17:44:34;27.00;91.10
45693;DHT22;31402;44.752;-0.374;2022-10-18T17:47:00;27.00;91.30
45693;DHT22;31402;44.752;-0.374;2022-10-18T17:49:26;26.90;91.30
45693;DHT22;31402;44.752;-0.374;2022-10-18T17:51:52;26.90;91.30
45693;DHT22;31402;44.752;-0.374;2022-10-18T17:54:17;26.90;91.40
45693;DHT22;31402;44.752;-0.374;2022-10-18T17:56:43;26.90;91.40
45693;DHT22;31402;44.752;-0.374;2022-10-18T17:59:09;26.80;91.50
45693;DHT22;31402;44.752;-0.374;2022-10-18T18:01:35;26.80;91.50
45693;DHT22;31402;44.752;-0.374;2022-10-18T18:04:02;26.70;91.50
45693;DHT22;31402;44.752;-0.374;2022-10-18T18:06:30;26.70;91.60
45693;DHT22;31402;44.752;-0.374;2022-10-18T18:08:59;26.70;91.40
45693;DHT22;31402;44.752;-0.374;2022-10-18T18:11:26;26.60;91.30
45693;DHT22;31402;44.752;-0.374;2022-10-18T18:13:54;26.60;91.30
45693;DHT22;31402;44.752;-0.374;2022-10-18T18:16:23;26.60;91.30
45693;DHT22;31402;44.752;-0.374;2022-10-18T18:18:54;26.60;91.30
45693;DHT22;31402;44.752;-0.374;2022-10-18T18:21:21;26.60;91.40
45693;DHT22;31402;44.752;-0.374;2022-10-18T18:23:48;26.60;91.40
45693;DHT22;31402;44.752;-0.374;2022-10-18T18:26:15;26.50;91.30
45693;DHT22;31402;44.752;-0.374;2022-10-18T18:28:41;26.40;91.40
45693;DHT22;31402;44.752;-0.374;2022-10-18T18:31:09;26.40;91.50
45693;DHT22;31402;44.752;-0.374;2022-10-18T18:33:35;26.40;91.40